Middleton Island, Alaska
Current Conditions -  °F | °C
As of 8:16 PM on Wednesday 22 Oct 2014 (Local Time) from PAMD Reporting Station
Overcast Overcast  
Wind Chill: 39°   Ceiling: 4800
Heat Index: 46°   Visibility: 10mi
Dew Point: 39°   Wind: 20mph
Humidity: 76%   Direction: 70°ENE
Pressure: 29.32"   Gusts: 29mph
Location:  59.43°N, 146.33°W
Report Text: PAMD 230416Z 07017G25KT 10SM BKN048 OVC075 08/04 A2932 RMK AO1
Loading
Personal Weather Stations






























Interactive Weather Map New forecast layout! Learn more

10-Day Weather Forecast

Advertisements
Track Severe Weather on mobile